Time;durP1;ratioP1;P1;durP2;ratioP2;P2;SDS_P1;SDS_P2;PMS_P1;PMS_P2;Temp;Humidity;BMP_temperature;BMP_pressure;BME280_temperature;BME280_humidity;BME280_pressure;Samples;Min_cycle;Max_cycle;Signal;HPM_P1;HPM_P2
2022/09/04 00:02:21;;;;;;;0.70;0.47;;;;;;;18.96;67.65;101108.16;4981808;28;20164;-63
2022/09/04 00:04:56;;;;;;;0.60;0.40;;;;;;;18.97;67.13;101115.16;4983801;28;20050;-63
2022/09/04 00:07:38;;;;;;;0.82;0.45;;;;;;;18.89;67.85;101111.72;4987780;28;20089;-63
2022/09/04 00:10:22;;;;;;;1.85;0.40;;;;;;;18.89;67.75;101102.78;4984298;28;20057;-63
2022/09/04 00:13:00;;;;;;;1.10;0.40;;;;;;;18.96;67.53;101108.16;4987870;28;20114;-63
2022/09/04 00:15:34;;;;;;;0.55;0.40;;;;;;;19.04;66.82;101112.41;5012007;28;20045;-63
2022/09/04 00:18:29;;;;;;;1.20;0.57;;;;;;;18.97;67.13;101114.41;5024852;28;20048;-63
2022/09/04 00:20:58;;;;;;;0.35;0.35;;;;;;;18.83;67.94;101123.47;5009791;28;20046;-64
2022/09/04 00:23:40;;;;;;;0.73;0.30;;;;;;;18.83;68.11;101121.50;5025599;28;20052;-64
2022/09/04 00:26:35;;;;;;;0.85;0.50;;;;;;;18.89;67.71;101119.91;5020916;28;20041;-62
2022/09/04 00:29:17;;;;;;;0.68;0.30;;;;;;;18.86;67.30;101125.38;5013288;28;20397;-63
2022/09/04 00:31:51;;;;;;;0.45;0.40;;;;;;;18.81;67.81;101121.13;5022756;28;20622;-62
2022/09/04 00:35:02;;;;;;;0.50;0.50;;;;;;;18.82;67.31;101119.97;5026579;28;20041;-63
2022/09/04 00:37:36;;;;;;;2.03;0.60;;;;;;;18.73;67.35;101130.53;5015914;28;20052;-63
2022/09/04 00:40:02;;;;;;;0.50;0.43;;;;;;;18.59;68.51;101127.09;5024744;28;20041;-63
2022/09/04 00:43:01;;;;;;;1.35;0.30;;;;;;;18.72;67.76;101128.97;5015473;28;20087;-63
2022/09/04 00:45:26;;;;;;;0.63;0.50;;;;;;;18.71;67.78;101127.44;5018482;28;20026;-63
2022/09/04 00:48:45;;;;;;;0.68;0.40;;;;;;;18.75;67.64;101122.72;5022047;28;20056;-63
2022/09/04 00:51:22;;;;;;;0.77;0.30;;;;;;;18.74;67.74;101134.03;5002847;28;20183;-63
2022/09/04 00:54:16;;;;;;;1.00;0.40;;;;;;;18.64;68.10;101124.72;5014308;28;20041;-63
2022/09/04 00:57:20;;;;;;;0.70;0.40;;;;;;;18.62;68.00;101124.34;5004850;28;20487;-63
2022/09/04 01:00:08;;;;;;;0.70;0.43;;;;;;;18.59;67.98;101124.38;4990008;28;20137;-62
2022/09/04 01:02:45;;;;;;;0.35;0.30;;;;;;;18.49;68.54;101125.19;5011683;28;20046;-62
2022/09/04 01:05:31;;;;;;;0.98;0.50;;;;;;;18.50;68.32;101135.72;5015984;28;20048;-62
2022/09/04 01:08:04;;;;;;;0.30;0.30;;;;;;;18.50;68.31;101124.81;5022988;28;20034;-62
2022/09/04 01:10:44;;;;;;;0.77;0.50;;;;;;;18.59;67.98;101130.59;5026697;28;20052;-63
2022/09/04 01:13:19;;;;;;;0.30;0.20;;;;;;;18.57;67.61;101127.50;5025629;28;20060;-62
2022/09/04 01:15:57;;;;;;;0.52;0.50;;;;;;;18.50;68.08;101140.41;5021574;28;20045;-62
2022/09/04 01:18:48;;;;;;;0.38;0.30;;;;;;;18.56;67.39;101133.34;5021345;28;20474;-63
2022/09/04 01:21:29;;;;;;;0.30;0.20;;;;;;;18.56;67.34;101131.38;5024318;28;20090;-62
2022/09/04 01:24:25;;;;;;;0.50;0.40;;;;;;;18.28;68.09;101138.88;5022764;28;20402;-62
2022/09/04 01:27:19;;;;;;;0.47;0.47;;;;;;;18.46;67.81;101134.16;5023066;28;20555;-62
2022/09/04 01:30:06;;;;;;;0.52;0.30;;;;;;;18.42;68.11;101127.91;5020198;28;20054;-62
2022/09/04 01:32:41;;;;;;;0.57;0.38;;;;;;;18.43;68.03;101133.00;5017771;28;20044;-63
2022/09/04 01:35:27;;;;;;;0.30;0.30;;;;;;;18.45;68.00;101138.84;5026979;28;20042;-62
2022/09/04 01:38:20;;;;;;;0.63;0.40;;;;;;;18.31;68.79;101133.41;5019458;28;20153;-63
2022/09/04 01:41:10;;;;;;;0.30;0.30;;;;;;;18.26;68.14;101136.56;5025914;28;20071;-62
2022/09/04 01:43:36;;;;;;;3.40;0.60;;;;;;;18.17;68.53;101127.22;5020687;28;20053;-63
2022/09/04 01:46:32;;;;;;;1.02;0.50;;;;;;;18.14;68.71;101134.25;5020037;28;20546;-62
2022/09/04 01:49:14;;;;;;;0.55;0.40;;;;;;;18.24;68.53;101127.97;5012855;28;20375;-62
2022/09/04 01:51:58;;;;;;;1.38;0.45;;;;;;;18.16;68.11;101131.13;5016213;28;20065;-63
2022/09/04 01:54:39;;;;;;;0.40;0.30;;;;;;;18.22;68.23;101132.28;5020260;28;20449;-63
2022/09/04 01:57:05;;;;;;;0.57;0.40;;;;;;;18.25;67.79;101123.31;5028287;28;20394;-63
2022/09/04 01:59:46;;;;;;;0.73;0.50;;;;;;;18.36;67.31;101124.03;5012232;28;20030;-62
2022/09/04 02:02:36;;;;;;;2.40;0.50;;;;;;;18.29;67.47;101133.03;5020352;28;20495;-63
2022/09/04 02:05:26;;;;;;;0.75;0.47;;;;;;;18.27;67.51;101129.94;5023587;28;20045;-63
2022/09/04 02:07:54;;;;;;;2.25;0.40;;;;;;;18.17;67.98;101127.22;5015303;28;20030;-62
2022/09/04 02:10:38;;;;;;;1.70;0.70;;;;;;;18.20;67.96;101131.88;5020788;28;20029;-62
2022/09/04 02:13:16;;;;;;;0.70;0.43;;;;;;;18.21;67.81;101126.06;5028821;28;20037;-61
2022/09/04 02:16:21;;;;;;;0.45;0.40;;;;;;;18.25;67.22;101134.22;5018491;28;20033;-62
2022/09/04 02:18:59;;;;;;;1.33;0.38;;;;;;;18.19;67.63;101135.78;5024258;28;20406;-62
2022/09/04 02:21:46;;;;;;;1.45;0.30;;;;;;;18.16;67.54;101131.91;5020067;28;20120;-63
2022/09/04 02:24:45;;;;;;;0.70;0.50;;;;;;;18.21;67.11;101139.69;5026633;28;20045;-62
2022/09/04 02:27:37;;;;;;;1.40;0.30;;;;;;;18.22;67.34;101132.28;5024055;28;20122;-62
2022/09/04 02:30:09;;;;;;;0.80;0.47;;;;;;;18.18;67.84;101136.94;5027148;28;20437;-62
2022/09/04 02:32:53;;;;;;;0.40;0.40;;;;;;;18.17;67.89;101143.59;5030126;28;20119;-63
2022/09/04 02:35:30;;;;;;;0.77;0.35;;;;;;;18.02;68.19;101143.63;5023474;28;20341;-63
2022/09/04 02:38:23;;;;;;;0.30;0.30;;;;;;;18.06;67.89;101142.84;5030012;28;20386;-63
2022/09/04 02:40:51;;;;;;;1.95;0.30;;;;;;;18.08;67.81;101145.97;5019670;28;20033;-62
2022/09/04 02:43:34;;;;;;;1.60;0.50;;;;;;;18.10;67.72;101149.06;5029965;28;20124;-62
2022/09/04 02:46:47;;;;;;;0.32;0.32;;;;;;;18.00;68.36;101151.41;5030557;28;20041;-63
2022/09/04 02:49:37;;;;;;;1.60;0.50;;;;;;;17.93;68.58;101151.44;5020784;28;20029;-62
2022/09/04 02:52:32;;;;;;;1.88;0.47;;;;;;;17.85;68.39;101144.44;5025728;28;20025;-63
2022/09/04 02:55:29;;;;;;;0.52;0.40;;;;;;;17.89;68.27;101145.22;5021236;28;20034;-62
2022/09/04 02:58:22;;;;;;;0.70;0.38;;;;;;;17.77;69.06;101148.34;5028544;28;20050;-62
2022/09/04 03:01:11;;;;;;;0.50;0.47;;;;;;;17.80;69.05;101146.78;5020513;28;20036;-63
2022/09/04 03:03:56;;;;;;;0.82;0.50;;;;;;;17.76;68.13;101149.50;5023836;28;20041;-62
2022/09/04 03:06:39;;;;;;;0.40;0.40;;;;;;;17.72;68.59;101164.28;5025501;28;20080;-62
2022/09/04 03:09:14;;;;;;;0.40;0.32;;;;;;;17.64;69.09;101160.81;5023362;28;20129;-63
2022/09/04 03:11:56;;;;;;;1.15;0.63;;;;;;;17.60;69.40;101160.03;5027410;28;20033;-63
2022/09/04 03:14:33;;;;;;;3.00;0.50;;;;;;;17.58;69.52;101162.34;5022502;28;20474;-63
2022/09/04 03:17:24;;;;;;;0.47;0.43;;;;;;;17.63;69.25;101166.66;5030246;28;20038;-63
2022/09/04 03:20:02;;;;;;;0.38;0.35;;;;;;;17.56;69.56;101159.25;5027628;28;20477;-63
2022/09/04 03:22:34;;;;;;;0.60;0.43;;;;;;;17.53;69.85;101176.38;5021716;28;20025;-63
2022/09/04 03:25:22;;;;;;;0.60;0.47;;;;;;;17.48;70.10;101173.25;5021706;28;20042;-63
2022/09/04 03:27:47;;;;;;;2.38;0.65;;;;;;;17.43;70.10;101177.13;5024312;28;20039;-63
2022/09/04 03:30:13;;;;;;;0.55;0.40;;;;;;;17.42;70.39;101170.09;5021843;28;20041;-62
2022/09/04 03:32:53;;;;;;;0.65;0.50;;;;;;;17.32;70.82;101173.59;5030434;28;20075;-63
2022/09/04 03:35:24;;;;;;;0.75;0.35;;;;;;;17.21;70.88;101178.25;5022980;28;20079;-63
2022/09/04 03:38:24;;;;;;;0.50;0.32;;;;;;;17.17;71.65;101176.69;5022922;28;20049;-63
2022/09/04 03:41:05;;;;;;;0.73;0.60;;;;;;;17.17;71.23;101180.19;5021575;28;20041;-64
2022/09/04 03:43:42;;;;;;;2.22;0.65;;;;;;;17.13;71.58;101182.91;5019548;28;20187;-63
2022/09/04 03:46:26;;;;;;;1.27;0.55;;;;;;;17.21;71.35;101185.66;5024357;28;20053;-63
2022/09/04 03:48:54;;;;;;;0.40;0.40;;;;;;;17.07;71.37;101186.41;5017253;28;20048;-61
2022/09/04 03:51:43;;;;;;;1.08;0.52;;;;;;;16.96;71.86;101191.00;5016874;28;20037;-63
2022/09/04 03:54:15;;;;;;;0.35;0.35;;;;;;;16.99;72.17;101190.25;5023173;28;20125;-63
2022/09/04 03:56:53;;;;;;;0.55;0.47;;;;;;;16.96;72.42;101191.78;5019658;28;20396;-63
2022/09/04 03:59:36;;;;;;;0.65;0.50;;;;;;;16.96;72.19;101196.44;5022844;28;20033;-63
2022/09/04 04:02:02;;;;;;;0.85;0.50;;;;;;;17.00;71.92;101186.34;5020672;28;20033;-63
2022/09/04 04:04:34;;;;;;;0.98;0.70;;;;;;;16.92;72.36;101201.09;5024280;28;20123;-64
2022/09/04 04:07:49;;;;;;;0.93;0.52;;;;;;;16.88;72.69;101209.25;5020558;28;20068;-63
2022/09/04 04:10:44;;;;;;;1.15;0.50;;;;;;;16.88;73.15;101206.53;5026034;28;20509;-64
2022/09/04 04:13:27;;;;;;;0.63;0.52;;;;;;;16.90;72.80;101208.88;5012067;28;20077;-64
2022/09/04 04:16:11;;;;;;;0.80;0.40;;;;;;;16.86;73.45;101214.31;5019518;28;20037;-63
2022/09/04 04:18:45;;;;;;;0.55;0.47;;;;;;;16.87;73.18;101221.31;5025244;28;20036;-64
2022/09/04 04:21:16;;;;;;;2.47;0.63;;;;;;;16.90;73.61;101220.53;5023041;28;20040;-63
2022/09/04 04:24:18;;;;;;;0.60;0.55;;;;;;;16.90;72.64;101222.47;5021830;28;20034;-64
2022/09/04 04:27:20;;;;;;;1.02;0.50;;;;;;;16.99;72.74;101226.41;5021977;28;20505;-63
2022/09/04 04:29:45;;;;;;;2.08;0.50;;;;;;;16.93;72.85;101227.16;5025047;28;20052;-63
2022/09/04 04:32:12;;;;;;;0.88;0.50;;;;;;;16.92;72.97;101231.03;5015771;28;20517;-64
2022/09/04 04:35:07;;;;;;;0.90;0.50;;;;;;;16.91;73.14;101229.50;5023456;28;20065;-64
2022/09/04 04:38:10;;;;;;;0.50;0.50;;;;;;;16.87;73.03;101231.41;5023027;28;20103;-63
2022/09/04 04:41:30;;;;;;;1.08;0.60;;;;;;;16.80;73.10;101237.59;5019192;28;20033;-63
2022/09/04 04:44:10;;;;;;;0.60;0.50;;;;;;;16.71;74.11;101237.19;4977621;28;20118;-63
2022/09/04 04:47:01;;;;;;;1.30;0.60;;;;;;;16.75;73.66;101250.78;5017415;28;20061;-63
2022/09/04 04:50:09;;;;;;;0.50;0.30;;;;;;;16.78;73.93;101258.97;5019565;28;20099;-63
2022/09/04 04:53:04;;;;;;;1.05;0.60;;;;;;;16.68;74.24;101267.09;5020306;28;20044;-63
2022/09/04 04:56:13;;;;;;;1.83;0.65;;;;;;;16.73;73.65;101256.63;5010504;28;20049;-66
2022/09/04 04:59:06;;;;;;;0.73;0.60;;;;;;;16.68;73.90;101262.44;5026043;28;20096;-65
2022/09/04 05:01:34;;;;;;;0.60;0.40;;;;;;;16.77;73.28;101264.78;5036685;28;20111;-65
2022/09/04 05:04:06;;;;;;;0.57;0.47;;;;;;;16.82;73.25;101265.19;5021850;28;20455;-63
2022/09/04 05:06:35;;;;;;;0.52;0.50;;;;;;;16.85;72.82;101253.56;5018052;28;20079;-63
2022/09/04 05:09:10;;;;;;;0.77;0.47;;;;;;;16.94;73.14;101264.09;5023580;28;20091;-65
2022/09/04 05:12:20;;;;;;;1.25;0.77;;;;;;;17.02;72.63;101261.03;5013886;28;20038;-65
2022/09/04 05:14:59;;;;;;;0.65;0.47;;;;;;;17.01;72.03;101258.69;5002798;28;20065;-66
2022/09/04 05:17:53;;;;;;;1.20;0.50;;;;;;;17.04;71.37;101269.59;5021995;28;20116;-66
2022/09/04 05:20:35;;;;;;;2.83;0.50;;;;;;;16.98;71.56;101267.59;5018536;28;20029;-66
2022/09/04 05:23:28;;;;;;;0.80;0.50;;;;;;;17.02;71.26;101271.13;5023189;28;20140;-63
2022/09/04 05:26:07;;;;;;;0.40;0.40;;;;;;;17.07;70.98;101274.25;5025535;28;20028;-62
2022/09/04 05:28:44;;;;;;;1.17;0.40;;;;;;;17.07;70.79;101276.97;5022553;28;20049;-62
2022/09/04 05:31:20;;;;;;;0.52;0.50;;;;;;;17.09;71.20;101284.78;5024696;28;20029;-62
2022/09/04 05:33:55;;;;;;;1.33;0.70;;;;;;;17.09;71.30;101282.81;5026338;28;20434;-63
2022/09/04 05:36:48;;;;;;;0.77;0.45;;;;;;;17.14;70.62;101287.13;5026741;28;20057;-63
2022/09/04 05:39:40;;;;;;;0.50;0.45;;;;;;;17.16;70.60;101290.25;5025745;28;20516;-63
2022/09/04 05:42:24;;;;;;;0.95;0.40;;;;;;;17.16;70.15;101292.97;5029065;28;20041;-62
2022/09/04 05:45:05;;;;;;;0.60;0.47;;;;;;;17.25;69.73;101298.81;5027211;28;20125;-62
2022/09/04 05:47:39;;;;;;;0.52;0.50;;;;;;;17.28;69.72;101300.78;5025222;28;20049;-63
2022/09/04 05:50:21;;;;;;;0.75;0.68;;;;;;;17.35;68.86;101308.97;5024832;28;20062;-62
2022/09/04 05:52:56;;;;;;;1.83;0.60;;;;;;;17.37;69.32;101298.47;5025848;28;20045;-62
2022/09/04 05:55:37;;;;;;;0.95;0.63;;;;;;;17.44;68.78;101303.19;5022916;28;20494;-63
2022/09/04 05:58:12;;;;;;;1.00;0.40;;;;;;;17.45;68.49;101300.06;5028337;28;20490;-63
2022/09/04 06:00:59;;;;;;;1.42;0.70;;;;;;;17.46;68.26;101311.75;5032306;28;20536;-63
2022/09/04 06:03:55;;;;;;;1.48;0.40;;;;;;;17.52;68.51;101310.22;5025740;28;20484;-63
2022/09/04 06:06:37;;;;;;;0.45;0.43;;;;;;;17.59;67.67;101311.03;5016736;28;20276;-63
2022/09/04 06:09:21;;;;;;;;;;;;;;;17.60;67.33;101307.13;5028414;28;20061;-63
2022/09/04 06:12:01;;;;;;;3.78;0.35;;;;;;;17.58;66.90;101314.91;5025315;28;20702;-63
2022/09/04 06:14:55;;;;;;;0.50;0.50;;;;;;;17.51;66.00;101314.13;5020826;28;20040;-63
2022/09/04 06:17:42;;;;;;;0.55;0.40;;;;;;;17.63;66.32;101320.00;5026732;28;20029;-62
2022/09/04 06:20:41;;;;;;;1.27;0.30;;;;;;;17.73;65.44;101311.03;5015568;28;20494;-62
2022/09/04 06:23:28;;;;;;;0.85;0.63;;;;;;;17.80;64.79;101313.78;5028323;28;20102;-61
2022/09/04 06:26:03;;;;;;;0.73;0.60;;;;;;;17.71;64.53;101324.28;5024079;28;20482;-62
2022/09/04 06:28:56;;;;;;;0.43;0.40;;;;;;;17.89;64.77;101321.56;5023693;28;20047;-62
2022/09/04 06:31:24;;;;;;;0.65;0.50;;;;;;;18.04;64.42;101321.19;5027623;28;20098;-62
2022/09/04 06:34:27;;;;;;;0.47;0.22;;;;;;;18.18;64.94;101322.38;5031628;28;20167;-62
2022/09/04 06:37:21;;;;;;;0.47;0.40;;;;;;;18.37;63.66;101322.00;5019028;28;20029;-63
2022/09/04 06:40:01;;;;;;;0.40;0.30;;;;;;;18.79;62.23;101322.72;5034994;28;20494;-62
2022/09/04 06:43:07;;;;;;;0.70;0.40;;;;;;;19.14;61.32;101327.31;5016463;28;20148;-62
2022/09/04 06:45:47;;;;;;;0.52;0.40;;;;;;;19.41;60.03;101331.13;5012858;28;20054;-63
2022/09/04 06:48:46;;;;;;;1.08;0.57;;;;;;;19.76;58.57;101335.63;5028691;28;20113;-62
2022/09/04 06:51:33;;;;;;;0.52;0.50;;;;;;;19.94;57.29;101332.78;5027146;28;20072;-63
2022/09/04 06:54:19;;;;;;;0.98;0.50;;;;;;;20.21;57.04;101341.97;5015687;28;20307;-63
2022/09/04 06:56:44;;;;;;;0.80;0.60;;;;;;;20.50;56.86;101343.25;5022901;28;20056;-63
2022/09/04 06:59:10;;;;;;;0.77;0.63;;;;;;;20.61;55.21;101339.25;5020882;28;20029;-62
2022/09/04 07:02:24;;;;;;;1.00;0.52;;;;;;;20.78;55.24;101345.75;5021677;28;20095;-62
2022/09/04 07:05:17;;;;;;;1.40;0.60;;;;;;;21.03;54.71;101342.75;4993498;28;20526;-63
2022/09/04 07:08:01;;;;;;;0.32;0.30;;;;;;;21.13;54.02;101341.84;5028063;28;20038;-63
2022/09/04 07:10:34;;;;;;;1.58;0.50;;;;;;;21.34;53.90;101353.34;5025467;28;20069;-63
2022/09/04 07:13:14;;;;;;;1.65;0.50;;;;;;;21.16;53.97;101352.78;5026586;28;20073;-63
2022/09/04 07:15:48;;;;;;;0.47;0.47;;;;;;;21.28;53.66;101360.47;5028952;28;20110;-63
2022/09/04 07:18:42;;;;;;;1.05;0.40;;;;;;;21.60;53.11;101357.31;5026725;28;20084;-63
2022/09/04 07:21:29;;;;;;;0.85;0.57;;;;;;;21.90;52.54;101351.03;5027228;28;20026;-63
2022/09/04 07:24:30;;;;;;;0.40;0.40;;;;;;;22.14;51.49;101349.88;5030151;28;20040;-63
2022/09/04 07:27:22;;;;;;;0.87;0.60;;;;;;;22.38;50.75;101354.19;5024926;28;20076;-62
2022/09/04 07:30:06;;;;;;;0.90;0.43;;;;;;;22.60;50.55;101362.88;5028575;28;20045;-63
2022/09/04 07:32:55;;;;;;;0.90;0.60;;;;;;;22.61;51.15;101354.19;5019605;28;20050;-63
2022/09/04 07:35:38;;;;;;;2.38;0.75;;;;;;;22.76;50.09;101358.25;5025959;28;20063;-63
2022/09/04 07:38:15;;;;;;;1.50;0.80;;;;;;;23.17;51.53;101374.38;5026038;28;20033;-63
2022/09/04 07:41:00;;;;;;;0.77;0.68;;;;;;;23.19;48.59;101374.69;5016944;28;20405;-63
2022/09/04 07:43:49;;;;;;;0.40;0.40;;;;;;;23.39;49.35;101374.72;5025235;28;20068;-63
2022/09/04 07:46:28;;;;;;;2.38;0.63;;;;;;;23.47;49.00;101381.63;5015367;28;20044;-63
2022/09/04 07:49:11;;;;;;;2.78;0.70;;;;;;;23.61;48.34;101386.84;5016057;28;20092;-63
2022/09/04 07:52:00;;;;;;;1.45;0.93;;;;;;;23.52;47.50;101389.41;5028463;28;20371;-63
2022/09/04 07:55:02;;;;;;;2.70;0.50;;;;;;;23.54;48.43;101389.75;5028113;28;20084;-63
2022/09/04 07:57:51;;;;;;;0.93;0.65;;;;;;;23.82;48.65;101389.13;5027020;28;20518;-63
2022/09/04 08:00:21;;;;;;;0.70;0.70;;;;;;;23.97;47.87;101398.59;5027257;28;20464;-62
2022/09/04 08:03:10;;;;;;;1.92;1.20;;;;;;;23.88;50.08;101388.19;5021167;28;20037;-63
2022/09/04 08:05:58;;;;;;;1.02;0.65;;;;;;;24.14;48.13;101392.72;5026423;28;20494;-63
2022/09/04 08:08:36;;;;;;;0.70;0.70;;;;;;;24.34;47.50;101398.16;5026451;28;20376;-63
2022/09/04 08:11:16;;;;;;;2.65;0.70;;;;;;;24.29;47.45;101393.16;5027471;28;20049;-63
2022/09/04 08:14:12;;;;;;;0.73;0.68;;;;;;;24.56;47.77;101403.91;5022009;28;20045;-62
2022/09/04 08:16:43;;;;;;;1.33;0.80;;;;;;;24.45;46.54;101403.41;5024858;28;20076;-63
2022/09/04 08:19:23;;;;;;;1.27;0.90;;;;;;;24.57;47.42;101400.72;5020784;28;20029;-63
2022/09/04 08:21:52;;;;;;;1.00;0.90;;;;;;;24.54;46.96;101409.88;5026560;28;20037;-63
2022/09/04 08:24:43;;;;;;;3.30;0.95;;;;;;;24.80;46.80;101414.31;5027106;28;20498;-63
2022/09/04 08:27:26;;;;;;;0.75;0.60;;;;;;;24.70;46.99;101415.34;5025477;28;20021;-63
2022/09/04 08:30:06;;;;;;;0.90;0.75;;;;;;;24.76;46.50;101430.19;5017196;28;20065;-63
2022/09/04 08:32:50;;;;;;;0.88;0.60;;;;;;;24.63;47.11;101415.53;5022532;28;20037;-63
2022/09/04 08:35:42;;;;;;;0.88;0.75;;;;;;;25.08;46.53;101431.31;5027732;28;20033;-63
2022/09/04 08:38:44;;;;;;;1.25;0.80;;;;;;;25.10;45.84;101420.63;5020557;28;20034;-63
2022/09/04 08:41:44;;;;;;;2.45;0.90;;;;;;;25.33;46.28;101431.41;5023071;28;20044;-63
2022/09/04 08:44:26;;;;;;;0.80;0.80;;;;;;;25.49;45.06;101425.88;5025717;28;20478;-63
2022/09/04 08:47:00;;;;;;;1.02;0.80;;;;;;;25.19;45.67;101420.78;5023518;28;20033;-63
2022/09/04 08:49:38;;;;;;;1.73;1.05;;;;;;;24.95;45.65;101431.28;5027991;28;20037;-63
2022/09/04 08:52:25;;;;;;;1.92;0.95;;;;;;;24.96;46.29;101433.59;5027323;28;20040;-63
2022/09/04 08:54:57;;;;;;;1.13;0.68;;;;;;;25.03;46.07;101438.13;5029237;28;20038;-63
2022/09/04 08:57:58;;;;;;;1.00;0.80;;;;;;;25.36;45.83;101430.56;5028089;28;20041;-63
2022/09/04 09:00:39;;;;;;;1.88;0.65;;;;;;;25.66;45.12;101432.88;5025003;28;20506;-63
2022/09/04 09:03:40;;;;;;;2.10;0.60;;;;;;;25.90;45.62;101436.84;5025188;28;20045;-63
2022/09/04 09:06:24;;;;;;;4.57;0.75;;;;;;;25.86;45.21;101436.97;5018539;28;20049;-63
2022/09/04 09:08:58;;;;;;;3.30;0.88;;;;;;;26.13;44.46;101435.81;5031400;28;20034;-64
2022/09/04 09:11:42;;;;;;;1.40;1.10;;;;;;;26.31;43.46;101433.25;5030404;28;20081;-64
2022/09/04 09:14:33;;;;;;;0.70;0.70;;;;;;;26.39;43.98;101431.81;5029007;28;20490;-64
2022/09/04 09:17:37;;;;;;;1.00;0.73;;;;;;;26.65;44.63;101428.53;5032255;28;20103;-63
2022/09/04 09:20:27;;;;;;;0.95;0.70;;;;;;;26.48;43.77;101424.38;5021855;28;20045;-64
2022/09/04 09:23:30;;;;;;;0.63;0.60;;;;;;;26.61;43.28;101427.13;5034287;28;20536;-64
2022/09/04 09:26:20;;;;;;;1.10;0.80;;;;;;;26.70;43.51;101443.81;5033837;28;20080;-64
2022/09/04 09:29:13;;;;;;;2.85;0.90;;;;;;;26.60;42.92;101434.66;5033681;28;20138;-64
2022/09/04 09:31:58;;;;;;;2.92;1.00;;;;;;;26.88;43.00;101427.41;5033777;28;20187;-64
2022/09/04 09:34:55;;;;;;;0.60;0.60;;;;;;;27.12;42.03;101430.53;5040592;28;20029;-64
2022/09/04 09:37:35;;;;;;;1.13;0.60;;;;;;;27.37;42.51;101430.44;5029005;28;20044;-63
2022/09/04 09:40:19;;;;;;;1.25;0.60;;;;;;;27.47;42.48;101432.03;5029697;28;20386;-64
2022/09/04 09:43:15;;;;;;;0.80;0.70;;;;;;;27.64;42.04;101431.38;5032935;28;20559;-64
2022/09/04 09:46:00;;;;;;;2.47;0.85;;;;;;;27.76;41.58;101434.53;5029301;28;20147;-64
2022/09/04 09:48:28;;;;;;;0.98;0.90;;;;;;;27.47;41.10;101432.03;5030514;28;20073;-64
2022/09/04 09:51:05;;;;;;;1.67;0.80;;;;;;;27.49;41.83;101438.66;5033030;28;20037;-64
2022/09/04 09:53:42;;;;;;;0.85;0.70;;;;;;;27.85;41.01;101440.88;5025685;28;20052;-64
2022/09/04 09:56:39;;;;;;;1.15;0.80;;;;;;;27.88;40.85;101431.66;5038745;28;20033;-64
2022/09/04 09:59:19;;;;;;;1.50;0.63;;;;;;;27.99;41.48;101440.34;5020295;28;20470;-65
2022/09/04 10:02:00;;;;;;;1.15;0.73;;;;;;;28.09;41.28;101447.47;5033371;28;20451;-64
2022/09/04 10:04:54;;;;;;;1.10;0.80;;;;;;;28.15;41.43;101440.09;5024856;28;20044;-64
2022/09/04 10:08:02;;;;;;;0.65;0.52;;;;;;;28.14;41.28;101430.28;5031138;28;20087;-64
2022/09/04 10:10:41;;;;;;;1.40;0.80;;;;;;;28.46;40.20;101432.50;5032209;28;20165;-64
2022/09/04 10:13:43;;;;;;;0.70;0.70;;;;;;;28.55;39.96;101426.25;5032489;28;20068;-65
2022/09/04 10:16:15;;;;;;;1.30;0.85;;;;;;;28.28;40.27;101426.91;5017035;28;20034;-64
2022/09/04 10:18:55;;;;;;;1.13;0.85;;;;;;;28.61;39.82;101420.88;5026739;28;20033;-64
2022/09/04 10:21:55;;;;;;;1.55;0.70;;;;;;;28.84;39.67;101428.59;5029591;28;20053;-64
2022/09/04 10:24:42;;;;;;;1.60;0.70;;;;;;;28.86;39.37;101417.81;5027297;28;20033;-64
2022/09/04 10:27:30;;;;;;;0.95;0.70;;;;;;;29.00;38.59;101426.28;5033054;28;20033;-64
2022/09/04 10:30:16;;;;;;;0.98;0.70;;;;;;;29.23;38.61;101422.13;5027782;28;20029;-65
2022/09/04 10:32:47;;;;;;;1.52;0.88;;;;;;;29.31;38.85;101428.91;5032552;28;20044;-64
2022/09/04 10:35:31;;;;;;;1.08;0.73;;;;;;;29.52;38.15;101422.38;5036233;28;20048;-64
2022/09/04 10:40:34;;;;;;;1.20;0.80;;;;;;;29.26;38.22;101421.97;5022596;28;20153;-64
2022/09/04 10:41:47;;;;;;;0.77;0.68;;;;;;;29.50;38.25;101422.06;5025383;28;20045;-64
2022/09/04 10:44:34;;;;;;;1.20;0.63;;;;;;;29.55;38.56;101429.00;5032115;28;20064;-64
2022/09/04 10:47:15;;;;;;;0.88;0.70;;;;;;;29.46;37.73;101427.03;5032286;28;20029;-65
2022/09/04 10:50:07;;;;;;;0.95;0.75;;;;;;;29.46;37.70;101435.38;5028276;28;20112;-64
2022/09/04 10:52:32;;;;;;;0.82;0.80;;;;;;;29.07;38.08;101430.75;5031919;28;20108;-65
2022/09/04 10:54:58;;;;;;;2.22;0.75;;;;;;;29.23;38.70;101431.22;5029893;28;20121;-64
2022/09/04 10:57:36;;;;;;;2.05;0.98;;;;;;;29.50;38.44;101430.41;5025931;28;20032;-64
2022/09/04 11:00:16;;;;;;;0.85;0.65;;;;;;;29.81;38.08;101424.66;5030062;28;20087;-64
2022/09/04 11:02:41;;;;;;;1.30;0.73;;;;;;;29.83;38.01;101420.16;5031992;28;20629;-64
2022/09/04 11:05:23;;;;;;;1.08;0.80;;;;;;;30.08;37.37;101428.06;5028515;28;20033;-64
2022/09/04 11:07:58;;;;;;;1.15;0.70;;;;;;;30.10;37.22;101428.38;5028364;28;20033;-64
2022/09/04 11:10:33;;;;;;;1.92;1.08;;;;;;;29.93;36.54;101430.00;5024758;28;20030;-64
2022/09/04 11:13:36;;;;;;;1.10;0.80;;;;;;;29.14;38.15;101431.25;5011986;28;20471;-64
2022/09/04 11:16:13;;;;;;;1.27;1.00;;;;;;;29.57;38.10;101427.31;5021832;28;20030;-64
2022/09/04 11:18:48;;;;;;;1.15;0.82;;;;;;;29.77;37.30;101427.59;5025643;28;20025;-64
2022/09/04 11:21:38;;;;;;;0.90;0.80;;;;;;;30.06;37.27;101425.00;5036102;28;20387;-64
2022/09/04 11:24:25;;;;;;;2.33;0.80;;;;;;;30.24;37.43;101422.13;5032919;28;20033;-63
2022/09/04 11:27:08;;;;;;;1.35;0.70;;;;;;;30.04;36.98;101424.69;5029569;28;20034;-64
2022/09/04 11:29:54;;;;;;;1.23;0.82;;;;;;;29.94;37.33;101425.22;5023519;28;20538;-64
2022/09/04 11:32:22;;;;;;;1.02;0.90;;;;;;;30.20;36.99;101426.31;5023458;28;20853;-64
2022/09/04 11:35:19;;;;;;;1.02;0.80;;;;;;;30.29;36.85;101417.19;5035596;28;20064;-63
2022/09/04 11:38:07;;;;;;;1.33;0.60;;;;;;;30.18;36.90;101423.25;5024827;28;20072;-64
2022/09/04 11:40:32;;;;;;;0.85;0.70;;;;;;;30.36;36.44;101411.28;5015122;28;20057;-64
2022/09/04 11:43:35;;;;;;;1.63;0.85;;;;;;;30.43;36.12;101410.94;5027827;28;20156;-64
2022/09/04 11:46:38;;;;;;;1.52;0.82;;;;;;;30.26;36.27;101416.09;5022735;28;20025;-64
2022/09/04 11:49:06;;;;;;;0.90;0.80;;;;;;;30.37;36.62;101396.16;5025898;28;20026;-64
2022/09/04 11:51:58;;;;;;;1.48;0.80;;;;;;;30.16;36.37;101404.25;5038872;28;20106;-64
2022/09/04 11:54:58;;;;;;;1.23;0.70;;;;;;;29.69;36.97;101404.13;5107870;27;20412;-64
2022/09/04 11:57:49;;;;;;;1.17;0.80;;;;;;;29.18;37.52;101397.75;5084129;28;20480;-64
2022/09/04 12:00:16;;;;;;;1.08;0.80;;;;;;;29.65;37.63;101402.75;5066835;28;20389;-64
2022/09/04 12:02:51;;;;;;;4.35;0.75;;;;;;;29.99;36.57;101389.22;5081164;28;20488;-64
2022/09/04 12:05:38;;;;;;;0.98;0.88;;;;;;;29.72;36.72;101383.78;5071264;28;20040;-64
2022/09/04 12:08:29;;;;;;;0.80;0.70;;;;;;;29.79;36.64;101380.66;5069725;28;20040;-63
2022/09/04 12:11:22;;;;;;;0.90;0.60;;;;;;;29.89;36.49;101379.38;5055033;28;20055;-63
2022/09/04 12:14:03;;;;;;;1.80;0.90;;;;;;;30.02;36.58;101393.06;5055637;28;20072;-65
2022/09/04 12:17:07;;;;;;;0.82;0.70;;;;;;;30.09;36.31;101395.50;5063181;28;20045;-64
2022/09/04 12:19:51;;;;;;;1.00;0.68;;;;;;;29.90;36.44;101403.16;5084841;28;20477;-64
2022/09/04 12:22:36;;;;;;;0.77;0.73;;;;;;;29.81;36.54;101394.84;5078097;28;20032;-64
2022/09/04 12:25:40;;;;;;;1.30;0.80;;;;;;;29.79;36.80;101402.13;5050409;28;20107;-63
2022/09/04 12:28:28;;;;;;;2.00;0.70;;;;;;;29.81;36.51;101405.97;5039353;28;20045;-63
2022/09/04 12:31:30;;;;;;;0.95;0.77;;;;;;;29.84;36.80;101404.25;5067202;28;20029;-63
2022/09/04 12:34:19;;;;;;;0.90;0.68;;;;;;;29.70;35.96;101399.34;5066151;28;20020;-63
2022/09/04 12:37:10;;;;;;;1.02;0.55;;;;;;;29.32;35.66;101402.69;5065609;28;20420;-63
2022/09/04 12:39:50;;;;;;;1.13;0.90;;;;;;;29.31;35.79;101395.56;5066902;28;20064;-63
2022/09/04 12:42:47;;;;;;;1.27;0.80;;;;;;;29.64;35.69;101399.19;5066718;28;20603;-63
2022/09/04 12:45:35;;;;;;;1.20;0.88;;;;;;;29.75;35.22;101396.72;5026075;28;20048;-63
2022/09/04 12:48:31;;;;;;;1.40;0.75;;;;;;;29.67;35.33;101395.50;5066802;28;20029;-63